createdAt,value
2023-11-25T00:00:49.591Z,7.22
2023-11-25T00:03:16.666Z,7.28
2023-11-25T00:05:43.208Z,8.38
2023-11-25T00:08:09.677Z,6.18
2023-11-25T00:10:36.145Z,8.27
2023-11-25T00:13:02.783Z,5.82
2023-11-25T00:15:29.592Z,6.78
2023-11-25T00:17:56.470Z,6.78
2023-11-25T00:20:23.472Z,8.07
2023-11-25T00:22:50.057Z,6.55
2023-11-25T00:25:16.537Z,6.78
2023-11-25T00:27:43.976Z,6.78
2023-11-25T00:30:11.346Z,7.65
2023-11-25T00:32:42.060Z,5.13
2023-11-25T00:35:09.128Z,7.30
2023-11-25T00:37:36.553Z,6.30
2023-11-25T00:40:08.885Z,6.55
2023-11-25T00:42:35.839Z,6.32
2023-11-25T00:45:02.417Z,6.88
2023-11-25T00:47:29.310Z,6.05
2023-11-25T00:49:56.795Z,6.78
2023-11-25T00:52:23.447Z,6.93
2023-11-25T00:54:49.996Z,6.47
2023-11-25T00:57:16.486Z,6.82
2023-11-25T00:59:43.233Z,7.28
2023-11-25T01:02:09.631Z,6.97
2023-11-25T01:04:36.117Z,5.78
2023-11-25T01:07:02.702Z,5.78
2023-11-25T01:09:31.877Z,4.45
2023-11-25T01:11:58.320Z,10.30
2023-11-25T01:14:24.716Z,5.25
2023-11-25T01:16:51.598Z,6.53
2023-11-25T01:19:18.158Z,4.43
2023-11-25T01:21:44.537Z,7.18
2023-11-25T01:24:12.699Z,7.25
2023-11-25T01:26:42.059Z,6.50
2023-11-25T01:29:08.451Z,5.47
2023-11-25T01:31:34.958Z,5.55
2023-11-25T01:34:01.459Z,6.35
2023-11-25T01:36:27.936Z,4.55
2023-11-25T01:38:55.295Z,4.70
2023-11-25T01:41:21.757Z,5.93
2023-11-25T01:43:48.536Z,5.85
2023-11-25T01:46:19.914Z,5.45
2023-11-25T01:48:46.379Z,5.53
2023-11-25T01:51:12.740Z,3.95
2023-11-25T01:53:39.910Z,6.63
2023-11-25T01:56:06.809Z,4.68
2023-11-25T01:58:33.503Z,4.65
2023-11-25T02:01:00.326Z,4.10
2023-11-25T02:03:27.270Z,4.95
2023-11-25T02:05:53.764Z,5.25
2023-11-25T02:08:21.894Z,8.48
2023-11-25T02:10:48.393Z,5.45
2023-11-25T02:13:14.867Z,6.60
2023-11-25T02:15:42.005Z,7.65
2023-11-25T02:18:08.694Z,7.53
2023-11-25T02:20:39.264Z,6.90
2023-11-25T02:23:05.842Z,6.00
2023-11-25T02:25:33.675Z,7.30
2023-11-25T02:28:00.193Z,6.32
2023-11-25T02:30:27.675Z,7.43
2023-11-25T02:32:54.786Z,5.57
2023-11-25T02:35:22.136Z,6.22
2023-11-25T02:37:48.570Z,5.28
2023-11-25T02:40:18.097Z,6.50
2023-11-25T02:42:48.357Z,6.53
2023-11-25T02:45:19.446Z,4.10
2023-11-25T02:47:50.141Z,6.90
2023-11-25T02:50:17.313Z,9.68
2023-11-25T02:52:44.359Z,7.63
2023-11-25T02:55:11.596Z,6.85
2023-11-25T02:57:44.360Z,6.43
2023-11-25T03:00:30.192Z,7.78
2023-11-25T03:03:10.473Z,6.50
2023-11-25T03:05:43.422Z,6.60
2023-11-25T03:08:13.962Z,7.07
2023-11-25T03:13:12.545Z,6.28
2023-11-25T03:15:39.331Z,6.25
2023-11-25T03:18:09.240Z,6.10
2023-11-25T03:20:36.289Z,6.63
2023-11-25T03:23:04.237Z,6.78
2023-11-25T03:25:32.301Z,6.38
2023-11-25T03:27:58.996Z,5.50
2023-11-25T03:30:27.455Z,4.55
2023-11-25T03:32:54.006Z,6.03
2023-11-25T03:35:20.429Z,5.68
2023-11-25T03:37:46.889Z,5.65
2023-11-25T03:40:16.970Z,4.43
2023-11-25T03:42:44.976Z,5.15
2023-11-25T03:45:14.679Z,5.60
2023-11-25T03:47:45.182Z,5.20
2023-11-25T03:50:14.556Z,5.75
2023-11-25T03:52:44.134Z,5.32
2023-11-25T03:55:13.601Z,6.00
2023-11-25T03:57:41.102Z,4.95
2023-11-25T04:00:16.990Z,4.47
2023-11-25T04:02:44.044Z,7.03
2023-11-25T04:05:11.244Z,4.40
2023-11-25T04:07:38.021Z,5.13
2023-11-25T04:10:13.565Z,5.18
2023-11-25T04:12:43.732Z,4.55
2023-11-25T04:15:11.552Z,5.10
2023-11-25T04:17:38.543Z,5.90
2023-11-25T04:20:13.980Z,4.10
2023-11-25T04:22:44.359Z,4.25
2023-11-25T04:27:39.184Z,6.80
2023-11-25T04:30:06.375Z,4.60
2023-11-25T04:32:32.878Z,3.42
2023-11-25T04:34:59.352Z,6.43
2023-11-25T04:37:26.742Z,6.63
2023-11-25T04:39:53.243Z,5.07
2023-11-25T04:42:19.608Z,5.35
2023-11-25T04:44:46.393Z,5.35
2023-11-25T04:47:12.824Z,6.10
2023-11-25T04:49:40.779Z,4.50
2023-11-25T04:52:07.274Z,3.78
2023-11-25T04:54:33.672Z,4.65
2023-11-25T04:57:00.221Z,5.97
2023-11-25T04:59:26.624Z,8.18
2023-11-25T05:01:53.089Z,5.13
2023-11-25T05:04:19.552Z,6.03
2023-11-25T05:06:46.035Z,5.72
2023-11-25T05:09:14.874Z,5.50
2023-11-25T05:11:41.619Z,6.68
2023-11-25T05:14:08.119Z,12.43
2023-11-25T05:16:34.615Z,7.88
2023-11-25T05:19:01.032Z,6.25
2023-11-25T05:21:27.421Z,6.97
2023-11-25T05:23:53.864Z,6.85
2023-11-25T05:26:20.289Z,6.55
2023-11-25T05:28:46.683Z,6.53
2023-11-25T05:31:13.137Z,6.65
2023-11-25T05:33:39.601Z,7.68
2023-11-25T05:36:06.237Z,5.97
2023-11-25T05:38:32.624Z,5.63
2023-11-25T05:40:59.300Z,6.13
2023-11-25T05:43:26.522Z,8.25
2023-11-25T05:45:52.986Z,7.28
2023-11-25T05:48:19.651Z,6.15
2023-11-25T05:50:46.100Z,5.30
2023-11-25T05:53:12.475Z,5.80
2023-11-25T05:55:38.970Z,6.20
2023-11-25T05:58:05.391Z,6.70
2023-11-25T06:00:31.809Z,5.93
2023-11-25T06:02:58.255Z,6.07
2023-11-25T06:05:24.754Z,6.13
2023-11-25T06:07:51.479Z,5.47
2023-11-25T06:10:20.094Z,6.20
2023-11-25T06:12:46.645Z,6.55
2023-11-25T06:15:14.331Z,6.43
2023-11-25T06:17:41.034Z,6.70
2023-11-25T06:20:07.810Z,6.40
2023-11-25T06:22:34.271Z,6.68
2023-11-25T06:25:01.679Z,6.35
2023-11-25T06:27:28.174Z,6.47
2023-11-25T06:29:54.517Z,7.55
2023-11-25T06:32:20.905Z,7.30
2023-11-25T06:34:47.351Z,7.25
2023-11-25T06:37:15.280Z,6.75
2023-11-25T06:39:41.660Z,6.60
2023-11-25T06:42:10.852Z,6.70
2023-11-25T06:44:37.882Z,6.85
2023-11-25T06:47:04.490Z,6.82
2023-11-25T06:49:30.920Z,6.50
2023-11-25T06:51:59.178Z,6.90
2023-11-25T06:54:25.622Z,6.97
2023-11-25T06:56:52.296Z,6.80
2023-11-25T06:59:19.935Z,7.40
2023-11-25T07:01:47.199Z,8.60
2023-11-25T07:04:14.857Z,7.43
2023-11-25T07:06:41.333Z,7.82
2023-11-25T07:09:07.732Z,7.28
2023-11-25T07:11:35.279Z,7.18
2023-11-25T07:14:01.816Z,6.90
2023-11-25T07:16:28.508Z,6.90
2023-11-25T07:18:55.077Z,7.80
2023-11-25T07:21:23.232Z,7.97
2023-11-25T07:23:49.618Z,6.80
2023-11-25T07:26:16.040Z,8.95
2023-11-25T07:28:43.264Z,7.65
2023-11-25T07:31:10.778Z,7.88
2023-11-25T07:33:37.240Z,7.03
2023-11-25T07:36:04.204Z,7.10
2023-11-25T07:38:30.650Z,7.10
2023-11-25T07:40:57.282Z,8.52
2023-11-25T07:43:25.492Z,6.97
2023-11-25T07:45:52.480Z,7.43
2023-11-25T07:48:18.986Z,7.70
2023-11-25T07:50:50.261Z,7.18
2023-11-25T07:53:17.852Z,7.78
2023-11-25T07:55:44.990Z,7.70
2023-11-25T07:58:12.321Z,6.82
2023-11-25T08:00:38.778Z,7.00
2023-11-25T08:03:05.317Z,7.43
2023-11-25T08:05:31.812Z,6.72
2023-11-25T08:07:58.271Z,8.00
2023-11-25T08:10:32.809Z,7.78
2023-11-25T08:13:00.749Z,9.30
2023-11-25T08:15:27.479Z,7.22
2023-11-25T08:17:53.887Z,7.25
2023-11-25T08:20:22.102Z,27.55
2023-11-25T08:22:49.400Z,10.50
2023-11-25T08:25:15.961Z,7.78
2023-11-25T08:27:43.372Z,8.80
2023-11-25T08:30:10.356Z,7.45
2023-11-25T08:32:41.172Z,9.60
2023-11-25T08:35:09.832Z,9.35
2023-11-25T08:37:42.340Z,7.20
2023-11-25T08:40:22.659Z,10.57
2023-11-25T08:42:50.733Z,8.52
2023-11-25T08:45:17.326Z,8.25
2023-11-25T08:47:44.215Z,7.10
2023-11-25T08:50:12.238Z,6.78
2023-11-25T08:52:41.688Z,7.18
2023-11-25T08:55:11.799Z,7.63
2023-11-25T08:57:38.328Z,8.43
2023-11-25T09:00:21.139Z,7.10
2023-11-25T09:02:55.434Z,7.25
2023-11-25T09:05:26.751Z,7.90
2023-11-25T09:07:53.919Z,7.05
2023-11-25T09:10:21.027Z,7.63
2023-11-25T09:12:47.476Z,9.02
2023-11-25T09:15:14.450Z,9.02
2023-11-25T09:17:42.378Z,7.32
2023-11-25T09:20:13.168Z,7.15
2023-11-25T09:22:40.234Z,7.15
2023-11-25T09:25:07.411Z,14.35
2023-11-25T09:27:34.514Z,8.30
2023-11-25T09:30:01.001Z,6.97
2023-11-25T09:32:28.933Z,6.55
2023-11-25T09:34:55.806Z,7.45
2023-11-25T09:37:22.352Z,6.75
2023-11-25T09:39:48.795Z,7.13
2023-11-25T09:42:15.360Z,7.30
2023-11-25T09:44:41.790Z,5.07
2023-11-25T09:47:08.219Z,7.70
2023-11-25T09:49:34.778Z,7.35
2023-11-25T09:52:10.307Z,6.65
2023-11-25T09:54:37.064Z,5.13
2023-11-25T09:57:04.935Z,6.35
2023-11-25T09:59:31.347Z,5.60
2023-11-25T10:01:59.306Z,5.45
2023-11-25T10:04:28.871Z,8.70
2023-11-25T10:06:55.272Z,5.78
2023-11-25T10:09:22.567Z,6.38
2023-11-25T10:11:48.979Z,6.25
2023-11-25T10:14:15.513Z,6.60
2023-11-25T10:16:45.707Z,7.05
2023-11-25T10:19:19.386Z,7.70
2023-11-25T10:21:47.429Z,5.38
2023-11-25T10:24:14.413Z,5.10
2023-11-25T10:26:41.209Z,5.85
2023-11-25T10:29:08.407Z,5.95
2023-11-25T10:31:35.924Z,5.38
2023-11-25T10:34:02.365Z,6.15
2023-11-25T10:36:29.709Z,5.70
2023-11-25T10:38:56.238Z,5.70
2023-11-25T10:41:22.697Z,5.40
2023-11-25T10:43:49.384Z,5.18
2023-11-25T10:46:16.482Z,5.53
2023-11-25T10:48:43.818Z,4.53
2023-11-25T10:51:11.160Z,5.25
2023-11-25T10:53:38.371Z,6.85
2023-11-25T10:56:05.252Z,5.05
2023-11-25T10:58:31.769Z,5.85
2023-11-25T11:01:01.686Z,4.78
2023-11-25T11:03:46.784Z,4.97
2023-11-25T11:06:18.021Z,5.95
2023-11-25T11:08:46.686Z,5.20
2023-11-25T11:11:32.509Z,5.30
2023-11-25T11:14:08.277Z,5.50
2023-11-25T11:16:40.940Z,5.53
2023-11-25T11:19:10.779Z,4.80
2023-11-25T11:21:40.356Z,4.72
2023-11-25T11:24:09.077Z,7.57
2023-11-25T11:26:46.902Z,5.85
2023-11-25T11:29:26.569Z,5.00
2023-11-25T11:31:53.719Z,4.97
2023-11-25T11:34:20.264Z,4.20
2023-11-25T11:36:46.691Z,5.50
2023-11-25T11:39:31.105Z,5.50
2023-11-25T11:41:57.760Z,3.90
2023-11-25T11:44:24.209Z,4.70
2023-11-25T11:46:52.776Z,3.85
2023-11-25T11:49:20.007Z,4.43
2023-11-25T11:52:02.639Z,3.65
2023-11-25T11:54:29.960Z,4.05
2023-11-25T11:57:03.899Z,3.53
2023-11-25T11:59:49.230Z,3.50
2023-11-25T12:02:15.799Z,2.88
2023-11-25T12:04:42.390Z,3.30
2023-11-25T12:07:08.885Z,3.58
2023-11-25T12:09:35.651Z,2.55
2023-11-25T12:12:02.421Z,3.53
2023-11-25T12:14:28.835Z,3.67
2023-11-25T12:16:55.654Z,2.67
2023-11-25T12:19:22.016Z,2.97
2023-11-25T12:21:48.419Z,2.30
2023-11-25T12:24:14.855Z,2.67
2023-11-25T12:26:43.285Z,3.05
2023-11-25T12:29:13.002Z,3.00
2023-11-25T12:31:39.493Z,4.18
2023-11-25T12:34:06.768Z,3.60
2023-11-25T12:36:33.198Z,2.97
2023-11-25T12:38:59.641Z,2.88
2023-11-25T12:41:26.030Z,2.80
2023-11-25T12:44:06.932Z,2.65
2023-11-25T12:46:33.634Z,2.50
2023-11-25T12:49:08.529Z,3.03
2023-11-25T12:51:44.458Z,2.80
2023-11-25T12:54:10.885Z,3.50
2023-11-25T12:56:39.202Z,3.35
2023-11-25T12:59:06.549Z,4.80
2023-11-25T13:01:33.150Z,3.05
2023-11-25T13:04:04.207Z,2.78
2023-11-25T13:06:30.905Z,3.65
2023-11-25T13:08:57.424Z,4.13
2023-11-25T13:11:23.845Z,5.45
2023-11-25T13:13:50.924Z,3.97
2023-11-25T13:16:17.393Z,5.65
2023-11-25T13:18:47.496Z,7.25
2023-11-25T13:21:13.872Z,29.13
2023-11-25T13:23:40.937Z,18.20
2023-11-25T13:26:08.862Z,18.98
2023-11-25T13:28:35.707Z,6.85
2023-11-25T13:31:02.113Z,4.65
2023-11-25T13:33:29.293Z,4.18
2023-11-25T13:35:55.716Z,2.90
2023-11-25T13:38:22.752Z,3.78
2023-11-25T13:40:49.371Z,4.30
2023-11-25T13:43:18.203Z,4.00
2023-11-25T13:45:44.828Z,3.40
2023-11-25T13:48:13.246Z,3.53
2023-11-25T13:50:39.679Z,3.65
2023-11-25T13:53:09.337Z,2.80
2023-11-25T13:55:44.438Z,3.00
2023-11-25T13:58:11.030Z,3.50
2023-11-25T14:00:38.411Z,3.92
2023-11-25T14:03:09.121Z,3.00
2023-11-25T14:05:41.900Z,3.05
2023-11-25T14:08:08.578Z,4.32
2023-11-25T14:10:35.691Z,3.28
2023-11-25T14:13:02.400Z,2.55
2023-11-25T14:15:28.919Z,3.28
2023-11-25T14:17:57.054Z,5.20
2023-11-25T14:20:25.203Z,3.15
2023-11-25T14:22:51.674Z,3.60
2023-11-25T14:25:18.966Z,3.63
2023-11-25T14:27:46.121Z,2.90
2023-11-25T14:30:13.078Z,3.58
2023-11-25T14:32:41.734Z,4.30
2023-11-25T14:35:09.342Z,2.95
2023-11-25T14:37:36.025Z,2.85
2023-11-25T14:40:03.057Z,3.55
2023-11-25T14:42:32.869Z,3.45
2023-11-25T14:45:01.043Z,3.20
2023-11-25T14:47:27.536Z,2.70
2023-11-25T14:49:54.420Z,3.72
2023-11-25T14:52:20.883Z,4.35
2023-11-25T14:54:47.245Z,3.00
2023-11-25T14:57:13.654Z,4.75
2023-11-25T14:59:40.918Z,3.05
2023-11-25T15:02:07.719Z,3.85
2023-11-25T15:04:34.362Z,5.13
2023-11-25T15:07:00.808Z,2.67
2023-11-25T15:09:27.150Z,3.22
2023-11-25T15:11:53.566Z,3.10
2023-11-25T15:14:19.950Z,3.83
2023-11-25T15:16:46.400Z,4.75
2023-11-25T15:19:12.820Z,3.65
2023-11-25T15:21:39.199Z,3.35
2023-11-25T15:24:06.028Z,2.35
2023-11-25T15:26:32.953Z,2.83
2023-11-25T15:28:59.330Z,3.42
2023-11-25T15:31:26.366Z,2.88
2023-11-25T15:33:52.798Z,3.50
2023-11-25T15:36:19.627Z,3.58
2023-11-25T15:38:46.685Z,3.25
2023-11-25T15:41:13.844Z,5.38
2023-11-25T15:43:42.963Z,3.70
2023-11-25T15:46:10.832Z,3.08
2023-11-25T15:48:39.642Z,3.20
2023-11-25T15:51:07.907Z,3.25
2023-11-25T15:53:34.709Z,3.47
2023-11-25T15:56:01.494Z,5.00
2023-11-25T15:58:28.139Z,3.00
2023-11-25T16:00:56.348Z,3.20
2023-11-25T16:03:24.665Z,3.78
2023-11-25T16:05:52.081Z,2.60
2023-11-25T16:08:18.987Z,2.85
2023-11-25T16:10:45.740Z,3.55
2023-11-25T16:13:12.560Z,3.35
2023-11-25T16:15:38.904Z,3.13
2023-11-25T16:18:06.765Z,3.40
2023-11-25T16:20:33.197Z,3.38
2023-11-25T16:22:59.685Z,3.83
2023-11-25T16:25:26.135Z,3.45
2023-11-25T16:27:52.946Z,4.50
2023-11-25T16:30:19.406Z,3.92
2023-11-25T16:32:45.860Z,3.45
2023-11-25T16:35:16.674Z,2.92
2023-11-25T16:37:43.957Z,3.30
2023-11-25T16:40:11.168Z,3.38
2023-11-25T16:42:37.795Z,3.85
2023-11-25T16:45:07.443Z,4.80
2023-11-25T16:47:34.500Z,4.25
2023-11-25T16:50:01.512Z,2.80
2023-11-25T16:52:28.104Z,3.40
2023-11-25T16:54:54.463Z,3.67
2023-11-25T16:57:20.838Z,3.72
2023-11-25T16:59:47.275Z,3.75
2023-11-25T17:02:13.748Z,2.90
2023-11-25T17:04:40.402Z,3.55
2023-11-25T17:07:10.102Z,3.63
2023-11-25T17:09:36.804Z,3.08
2023-11-25T17:12:03.757Z,3.47
2023-11-25T17:14:30.188Z,5.15
2023-11-25T17:16:56.576Z,3.83
2023-11-25T17:19:24.247Z,3.10
2023-11-25T17:21:50.715Z,4.20
2023-11-25T17:24:17.172Z,2.97
2023-11-25T17:26:43.896Z,4.10
2023-11-25T17:29:10.278Z,4.05
2023-11-25T17:31:36.667Z,3.85
2023-11-25T17:34:03.143Z,2.88
2023-11-25T17:36:29.537Z,5.22
2023-11-25T17:38:55.912Z,4.00
2023-11-25T17:41:22.331Z,3.47
2023-11-25T17:43:48.856Z,10.30
2023-11-25T17:46:15.353Z,12.10
2023-11-25T17:48:41.901Z,25.73
2023-11-25T17:51:08.531Z,7.95
2023-11-25T17:53:35.297Z,5.65
2023-11-25T17:56:02.950Z,6.28
2023-11-25T17:58:29.427Z,4.72
2023-11-25T18:00:56.371Z,4.78
2023-11-25T18:03:22.877Z,5.85
2023-11-25T18:05:49.294Z,5.07
2023-11-25T18:08:15.639Z,5.53
2023-11-25T18:10:42.939Z,5.72
2023-11-25T18:13:09.745Z,6.78
2023-11-25T18:15:36.102Z,6.38
2023-11-25T18:18:02.595Z,8.27
2023-11-25T18:20:29.338Z,5.97
2023-11-25T18:22:55.800Z,5.57
2023-11-25T18:25:22.198Z,6.82
2023-11-25T18:27:49.110Z,6.13
2023-11-25T18:30:17.888Z,5.10
2023-11-25T18:32:44.293Z,5.10
2023-11-25T18:35:10.789Z,5.60
2023-11-25T18:37:37.213Z,6.07
2023-11-25T18:40:04.177Z,5.00
2023-11-25T18:42:32.271Z,6.20
2023-11-25T18:44:58.861Z,5.32
2023-11-25T18:47:25.319Z,5.13
2023-11-25T18:49:51.786Z,4.47
2023-11-25T18:52:18.131Z,4.60
2023-11-25T18:54:44.684Z,4.97
2023-11-25T18:57:11.222Z,5.15
2023-11-25T18:59:38.673Z,4.50
2023-11-25T19:02:06.532Z,5.30
2023-11-25T19:04:33.016Z,5.00
2023-11-25T19:06:59.540Z,4.85
2023-11-25T19:09:26.143Z,4.75
2023-11-25T19:11:53.232Z,4.38
2023-11-25T19:14:19.673Z,5.07
2023-11-25T19:16:46.206Z,4.60
2023-11-25T19:19:12.749Z,5.07
2023-11-25T19:21:39.534Z,5.57
2023-11-25T19:24:06.284Z,5.13
2023-11-25T19:26:32.713Z,5.55
2023-11-25T19:28:59.148Z,5.82
2023-11-25T19:31:25.618Z,5.85
2023-11-25T19:33:52.277Z,5.65
2023-11-25T19:36:19.093Z,5.68
2023-11-25T19:38:46.399Z,5.60
2023-11-25T19:41:12.802Z,5.97
2023-11-25T19:43:39.314Z,6.00
2023-11-25T19:46:05.872Z,6.00
2023-11-25T19:48:33.270Z,6.25
2023-11-25T19:50:59.792Z,6.07
2023-11-25T19:53:49.013Z,6.15
2023-11-25T19:56:14.052Z,6.28
2023-11-25T19:58:41.750Z,6.18
2023-11-25T20:01:08.524Z,6.70
2023-11-25T20:03:35.092Z,6.32
2023-11-25T20:06:01.525Z,5.10
2023-11-25T20:08:28.253Z,4.38
2023-11-25T20:10:54.675Z,4.65
2023-11-25T20:13:21.075Z,4.47
2023-11-25T20:15:47.586Z,3.85
2023-11-25T20:18:14.637Z,4.55
2023-11-25T20:20:41.013Z,3.67
2023-11-25T20:23:07.414Z,3.30
2023-11-25T20:25:33.844Z,4.03
2023-11-25T20:28:00.240Z,3.38
2023-11-25T20:30:26.642Z,3.67
2023-11-25T20:32:53.101Z,2.83
2023-11-25T20:35:21.857Z,4.07
2023-11-25T20:37:48.927Z,4.28
2023-11-25T20:40:16.140Z,5.88
2023-11-25T20:42:42.584Z,3.55
2023-11-25T20:45:09.205Z,3.17
2023-11-25T20:47:36.269Z,3.13
2023-11-25T20:50:02.705Z,5.05
2023-11-25T20:52:29.121Z,6.05
2023-11-25T20:54:55.516Z,5.57
2023-11-25T20:57:22.018Z,5.93
2023-11-25T20:59:48.399Z,4.38
2023-11-25T21:02:16.056Z,13.85
2023-11-25T21:04:42.613Z,9.75
2023-11-25T21:07:09.209Z,5.95
2023-11-25T21:09:35.631Z,5.63
2023-11-25T21:12:02.016Z,6.25
2023-11-25T21:14:29.846Z,4.22
2023-11-25T21:16:57.045Z,4.00
2023-11-25T21:19:23.500Z,4.00
2023-11-25T21:21:50.957Z,3.97
2023-11-25T21:24:17.529Z,4.13
2023-11-25T21:26:43.915Z,4.35
2023-11-25T21:29:10.369Z,3.75
2023-11-25T21:31:37.355Z,4.00
2023-11-25T21:34:03.724Z,3.70
2023-11-25T21:36:32.812Z,3.28
2023-11-25T21:38:59.242Z,3.15
2023-11-25T21:41:25.596Z,3.92
2023-11-25T21:43:51.997Z,3.70
2023-11-25T21:46:18.401Z,5.38
2023-11-25T21:48:44.816Z,5.18
2023-11-25T21:51:12.974Z,4.63
2023-11-25T21:53:39.363Z,5.85
2023-11-25T21:56:06.654Z,3.10
2023-11-25T21:58:33.150Z,3.70
2023-11-25T22:01:01.516Z,3.15
2023-11-25T22:03:34.532Z,3.95
2023-11-25T22:06:01.298Z,3.85
2023-11-25T22:08:27.696Z,5.18
2023-11-25T22:10:54.411Z,3.72
2023-11-25T22:13:20.856Z,4.15
2023-11-25T22:15:47.237Z,4.38
2023-11-25T22:18:14.709Z,3.15
2023-11-25T22:20:41.190Z,3.35
2023-11-25T22:23:07.876Z,4.78
2023-11-25T22:25:38.564Z,3.03
2023-11-25T22:28:12.569Z,4.50
2023-11-25T22:30:39.816Z,3.75
2023-11-25T22:33:07.310Z,3.42
2023-11-25T22:35:44.140Z,3.47
2023-11-25T22:38:16.775Z,3.33
2023-11-25T22:40:43.427Z,3.15
2023-11-25T22:43:10.414Z,3.90
2023-11-25T22:45:38.908Z,3.05
2023-11-25T22:48:05.407Z,3.05
2023-11-25T22:50:31.860Z,5.25
2023-11-25T22:52:58.446Z,3.75
2023-11-25T22:55:25.498Z,4.18
2023-11-25T22:57:51.863Z,3.60
2023-11-25T23:00:29.985Z,3.05
2023-11-25T23:02:56.597Z,4.18
2023-11-25T23:05:23.511Z,3.33
2023-11-25T23:07:49.986Z,2.85
2023-11-25T23:10:16.582Z,3.20
2023-11-25T23:12:42.982Z,3.00
2023-11-25T23:15:09.455Z,3.45
2023-11-25T23:17:35.984Z,4.65
2023-11-25T23:20:03.795Z,4.10
2023-11-25T23:22:30.205Z,3.13
2023-11-25T23:24:56.538Z,5.65
2023-11-25T23:27:22.916Z,3.85
2023-11-25T23:29:49.323Z,2.78
2023-11-25T23:32:16.000Z,3.95
2023-11-25T23:34:42.438Z,2.70
2023-11-25T23:37:13.180Z,3.47
2023-11-25T23:39:39.622Z,3.60
2023-11-25T23:42:06.147Z,4.30
2023-11-25T23:44:32.489Z,4.45
2023-11-25T23:46:59.169Z,3.38
2023-11-25T23:49:25.548Z,4.30
2023-11-25T23:51:52.000Z,3.50
2023-11-25T23:54:18.346Z,4.13
2023-11-25T23:56:44.758Z,3.85
2023-11-25T23:59:12.082Z,2.40
